Time;durP1;ratioP1;P1;durP2;ratioP2;P2;SDS_P1;SDS_P2;PMS_P1;PMS_P2;Temp;Humidity;BMP_temperature;BMP_pressure;BME280_temperature;BME280_humidity;BME280_pressure;Samples;Min_cycle;Max_cycle;Signal;HPM_P1;HPM_P2
2021/06/26 00:00:46;;;;;;;12.00;8.25;;;;;;;15.89;67.58;101528.44;5036736;28;20024;-74
2021/06/26 00:03:11;;;;;;;11.90;8.52;;;;;;;15.91;67.10;101532.00;5054277;28;20028;-75
2021/06/26 00:05:37;;;;;;;13.35;8.68;;;;;;;15.86;67.46;101523.09;5036656;28;20029;-74
2021/06/26 00:08:02;;;;;;;16.95;10.18;;;;;;;15.88;67.62;101531.88;5054441;28;20063;-75
2021/06/26 00:10:28;;;;;;;12.63;9.13;;;;;;;15.87;67.75;101522.28;5036721;28;20017;-75
2021/06/26 00:12:54;;;;;;;12.38;8.77;;;;;;;15.88;67.75;101526.69;5054090;28;20053;-75
2021/06/26 00:15:19;;;;;;;15.63;9.70;;;;;;;15.94;67.46;101526.94;5054082;28;20025;-75
2021/06/26 00:17:44;;;;;;;14.75;9.68;;;;;;;15.91;67.70;101526.81;5036565;28;20083;-75
2021/06/26 00:20:11;;;;;;;13.65;9.43;;;;;;;15.94;67.30;101531.25;5053824;28;20021;-75
2021/06/26 00:22:36;;;;;;;15.95;9.55;;;;;;;15.96;67.21;101525.28;5054294;28;20096;-75
2021/06/26 00:25:02;;;;;;;13.10;9.52;;;;;;;15.91;67.17;101529.41;5036192;28;20120;-75
2021/06/26 00:27:30;;;;;;;18.60;11.02;;;;;;;15.78;67.75;101531.47;5054405;28;20118;-76
2021/06/26 00:29:56;;;;;;;16.52;10.02;;;;;;;15.86;67.32;101523.09;5031582;28;20041;-75
2021/06/26 00:32:21;;;;;;;14.57;9.45;;;;;;;15.94;67.31;101521.72;5033610;28;20506;-75
2021/06/26 00:34:46;;;;;;;15.77;9.13;;;;;;;15.78;67.58;101526.25;5053977;28;20108;-75
2021/06/26 00:37:12;;;;;;;13.23;8.85;;;;;;;15.87;67.54;101519.69;5053565;28;20028;-75
2021/06/26 00:39:37;;;;;;;11.65;8.10;;;;;;;15.95;67.46;101528.72;5035566;28;20048;-75
2021/06/26 00:42:03;;;;;;;14.82;7.90;;;;;;;15.93;67.54;101522.56;5052534;28;20064;-75
2021/06/26 00:44:29;;;;;;;14.32;9.35;;;;;;;15.92;67.24;101528.59;5037862;28;20103;-76
2021/06/26 00:46:54;;;;;;;10.95;8.25;;;;;;;15.86;67.69;101533.50;5035960;28;20099;-76
2021/06/26 00:49:19;;;;;;;12.38;8.45;;;;;;;15.75;67.95;101531.34;5053429;28;20654;-75
2021/06/26 00:51:45;;;;;;;11.95;8.45;;;;;;;15.66;68.10;101525.75;5035794;28;20399;-75
2021/06/26 00:54:10;;;;;;;12.70;8.60;;;;;;;15.60;68.61;101533.28;5053427;28;20120;-75
2021/06/26 00:56:36;;;;;;;12.60;8.10;;;;;;;15.54;69.00;101530.44;5036023;28;20020;-75
2021/06/26 00:59:02;;;;;;;14.55;8.27;;;;;;;15.52;69.04;101526.88;5035580;28;20029;-75
2021/06/26 01:01:27;;;;;;;12.57;8.50;;;;;;;15.51;69.08;101525.97;5035176;28;20103;-75
2021/06/26 01:03:53;;;;;;;11.85;8.77;;;;;;;15.52;69.46;101526.88;5035427;28;20401;-75
2021/06/26 01:06:19;;;;;;;12.48;8.43;;;;;;;15.56;69.58;101528.78;5035141;28;20017;-76
2021/06/26 01:08:44;;;;;;;12.02;8.00;;;;;;;15.57;69.27;101522.75;5035151;28;20033;-75
2021/06/26 01:11:10;;;;;;;11.85;8.48;;;;;;;15.62;68.96;101521.25;5034874;28;20035;-76
2021/06/26 01:13:36;;;;;;;14.98;8.40;;;;;;;15.65;68.87;101523.97;5052778;28;20049;-75
2021/06/26 01:16:01;;;;;;;11.40;7.90;;;;;;;15.70;69.19;101517.25;5035127;28;20064;-75
2021/06/26 01:18:26;;;;;;;11.18;8.15;;;;;;;15.74;68.95;101519.16;5052984;28;20024;-75
2021/06/26 01:20:52;;;;;;;11.60;7.93;;;;;;;15.73;69.49;101517.41;5034847;28;20037;-75
2021/06/26 01:23:19;;;;;;;15.15;8.80;;;;;;;15.73;68.87;101517.41;5035133;28;20021;-75
2021/06/26 01:25:45;;;;;;;19.52;8.85;;;;;;;15.74;68.84;101519.16;5035329;28;20070;-74
2021/06/26 01:28:12;;;;;;;13.73;8.57;;;;;;;15.76;69.11;101521.81;5052964;28;20025;-75
2021/06/26 01:30:38;;;;;;;12.52;8.50;;;;;;;15.75;69.01;101526.13;5018526;28;20024;-75
2021/06/26 01:33:04;;;;;;;11.82;8.02;;;;;;;15.73;69.02;101532.06;5034918;28;20040;-75
2021/06/26 01:35:30;;;;;;;14.32;8.73;;;;;;;15.82;68.38;101526.41;5034703;28;20032;-75
2021/06/26 01:37:57;;;;;;;13.77;9.23;;;;;;;15.85;67.80;101519.59;5034836;28;20021;-75
2021/06/26 01:40:24;;;;;;;13.05;8.05;;;;;;;15.73;68.53;101522.59;5034905;28;20040;-74
2021/06/26 01:42:52;;;;;;;13.07;8.02;;;;;;;15.67;69.44;101522.34;5052247;28;20099;-75
2021/06/26 01:45:18;;;;;;;12.63;9.05;;;;;;;15.63;69.32;101525.63;5034850;28;20086;-75
2021/06/26 01:47:56;;;;;;;15.25;8.18;;;;;;;15.66;69.15;101517.97;5052790;28;20029;-75
2021/06/26 01:50:24;;;;;;;13.48;8.23;;;;;;;15.65;69.05;101517.88;5034448;28;20106;-75
2021/06/26 01:52:50;;;;;;;11.40;8.35;;;;;;;15.65;69.23;101521.38;5052516;28;20021;-75
2021/06/26 01:55:17;;;;;;;15.35;9.05;;;;;;;15.63;69.40;101517.81;5052582;28;20025;-74
2021/06/26 01:57:43;;;;;;;15.15;9.30;;;;;;;15.62;69.77;101513.47;5034928;28;20025;-75
2021/06/26 02:00:10;;;;;;;12.18;8.43;;;;;;;15.70;69.10;101522.47;5053104;28;20032;-76
2021/06/26 02:02:36;;;;;;;13.82;8.63;;;;;;;15.68;69.36;101513.72;5060163;28;20033;-75
2021/06/26 02:05:05;;;;;;;14.20;9.13;;;;;;;15.73;69.04;101522.59;5052245;28;20512;-75
2021/06/26 02:10:52;;;;;;;13.48;8.55;;;;;;;15.85;68.79;101521.31;5052393;28;20040;-75
2021/06/26 02:13:17;;;;;;;16.58;8.77;;;;;;;15.88;68.28;101522.34;5014309;28;20041;-75
2021/06/26 02:15:43;;;;;;;17.05;10.75;;;;;;;15.91;68.09;101521.59;5046663;28;20120;-75
2021/06/26 02:18:08;;;;;;;14.88;11.02;;;;;;;15.90;67.92;101519.84;5034728;28;20037;-74
2021/06/26 02:20:34;;;;;;;15.55;10.70;;;;;;;15.88;68.03;101517.16;5051904;28;20519;-75
2021/06/26 02:22:59;;;;;;;20.48;11.38;;;;;;;15.88;68.28;101524.09;5044272;28;20048;-76
2021/06/26 02:25:25;;;;;;;18.23;12.40;;;;;;;15.91;68.37;101519.00;5043148;28;20025;-77
2021/06/26 02:27:50;;;;;;;16.98;11.68;;;;;;;15.88;68.12;101521.47;5052137;28;20367;-76
2021/06/26 02:30:16;;;;;;;21.55;12.82;;;;;;;15.89;68.16;101518.06;5052398;28;20098;-76
2021/06/26 02:32:42;;;;;;;25.02;13.85;;;;;;;15.93;68.28;101519.09;5051716;28;20482;-76
2021/06/26 02:35:08;;;;;;;21.30;13.70;;;;;;;15.87;68.55;101517.06;5052241;28;20036;-77
2021/06/26 02:37:34;;;;;;;24.70;14.90;;;;;;;15.77;68.85;101515.78;5034457;28;20037;-75
2021/06/26 02:39:59;;;;;;;25.27;15.55;;;;;;;15.72;68.96;101515.63;5034253;28;20027;-75
2021/06/26 02:42:25;;;;;;;26.00;15.45;;;;;;;15.61;69.60;101516.88;5034315;28;20394;-75
2021/06/26 02:44:51;;;;;;;26.08;16.65;;;;;;;15.49;70.17;101514.63;5034393;28;20323;-75
2021/06/26 02:47:18;;;;;;;24.13;15.13;;;;;;;15.39;70.54;101515.97;5017444;28;20446;-75
2021/06/26 02:49:43;;;;;;;26.52;15.15;;;;;;;15.30;71.15;101520.72;5034142;28;20029;-75
2021/06/26 02:52:09;;;;;;;25.35;15.73;;;;;;;15.19;71.23;101518.53;5051943;28;20027;-75
2021/06/26 02:54:35;;;;;;;27.23;16.75;;;;;;;15.14;71.36;101520.03;5034365;28;20394;-75
2021/06/26 02:57:00;;;;;;;29.20;15.65;;;;;;;15.10;71.82;101530.25;5052310;28;20024;-75
2021/06/26 02:59:26;;;;;;;24.33;15.95;;;;;;;15.01;71.91;101522.91;5051649;28;20493;-75
2021/06/26 03:01:51;;;;;;;25.40;15.68;;;;;;;15.04;72.10;101534.34;5033753;28;20029;-75
2021/06/26 03:04:17;;;;;;;29.60;16.70;;;;;;;14.96;72.38;101529.59;5051966;28;20036;-75
2021/06/26 03:06:42;;;;;;;27.17;16.85;;;;;;;14.90;72.73;101530.22;5021022;28;20095;-75
2021/06/26 03:09:08;;;;;;;28.83;16.40;;;;;;;14.85;72.93;101532.59;5037555;28;20028;-75
2021/06/26 03:11:33;;;;;;;22.30;14.95;;;;;;;14.78;72.78;101535.72;5054933;28;20033;-75
2021/06/26 03:13:59;;;;;;;29.30;17.55;;;;;;;14.71;73.43;101538.84;5055302;28;20048;-75
2021/06/26 03:16:24;;;;;;;26.05;16.50;;;;;;;14.67;73.24;101542.09;5054980;28;20044;-76
2021/06/26 03:18:50;;;;;;;29.20;16.33;;;;;;;14.65;73.23;101544.59;5037520;28;20033;-75
2021/06/26 03:21:15;;;;;;;27.77;16.88;;;;;;;14.64;73.30;101536.75;5016984;28;20037;-75
2021/06/26 03:23:41;;;;;;;29.55;15.68;;;;;;;14.67;73.58;101547.28;5053021;28;20029;-75
2021/06/26 03:26:07;;;;;;;27.13;16.70;;;;;;;14.77;73.57;101544.31;5037450;28;20017;-75
2021/06/26 03:28:33;;;;;;;27.70;15.63;;;;;;;14.92;73.07;101538.97;5037525;28;20031;-75
2021/06/26 03:31:00;;;;;;;25.98;16.30;;;;;;;14.97;72.79;101542.66;5054765;28;20025;-75
2021/06/26 03:33:26;;;;;;;27.95;16.38;;;;;;;15.00;72.66;101542.78;5054940;28;20033;-76
2021/06/26 03:35:52;;;;;;;26.50;16.23;;;;;;;15.07;72.62;101548.25;5053300;28;20143;-75
2021/06/26 03:38:18;;;;;;;23.40;15.35;;;;;;;15.15;72.47;101552.97;5054285;28;20104;-75
2021/06/26 03:40:44;;;;;;;25.77;15.68;;;;;;;15.15;72.53;101563.34;5035949;28;20120;-75
2021/06/26 03:43:09;;;;;;;26.35;15.23;;;;;;;15.14;72.34;101556.38;5036604;28;20099;-74
2021/06/26 03:45:34;;;;;;;28.83;16.65;;;;;;;15.23;71.97;101560.19;5054215;28;20052;-75
2021/06/26 03:48:00;;;;;;;25.95;15.65;;;;;;;15.32;71.68;101555.41;5054756;28;20086;-74
2021/06/26 03:50:25;;;;;;;24.67;16.35;;;;;;;15.38;71.42;101560.91;5036315;28;20090;-75
2021/06/26 03:52:51;;;;;;;24.45;15.63;;;;;;;15.40;71.22;101554.09;5054597;28;20028;-74
2021/06/26 03:55:16;;;;;;;24.58;14.93;;;;;;;15.44;71.32;101566.38;5036924;28;20025;-75
2021/06/26 03:57:41;;;;;;;28.58;14.27;;;;;;;15.53;71.14;101560.69;5054868;28;20021;-74
2021/06/26 04:00:08;;;;;;;26.70;15.13;;;;;;;15.62;70.82;101560.19;5036524;28;20028;-75
2021/06/26 04:02:33;;;;;;;22.77;14.73;;;;;;;15.70;71.01;101553.63;5036283;28;20100;-75
2021/06/26 04:04:59;;;;;;;25.73;15.82;;;;;;;15.67;70.70;101555.19;5036442;28;20124;-76
2021/06/26 04:07:25;;;;;;;23.05;15.20;;;;;;;15.73;70.79;101560.66;5036455;28;20036;-75
2021/06/26 04:09:50;;;;;;;24.77;15.38;;;;;;;15.77;71.04;101558.25;5036791;28;20044;-76
2021/06/26 04:12:16;;;;;;;25.75;15.88;;;;;;;15.80;70.63;101564.41;5036382;28;20086;-75
2021/06/26 04:14:41;;;;;;;23.58;15.57;;;;;;;15.85;70.54;101560.28;5032809;28;20044;-75
2021/06/26 04:17:07;;;;;;;23.52;16.05;;;;;;;15.93;70.31;101556.34;5033001;28;20029;-76
2021/06/26 04:19:32;;;;;;;25.50;15.52;;;;;;;15.97;70.35;101546.97;5034272;28;20079;-76
2021/06/26 04:21:58;;;;;;;27.52;16.17;;;;;;;16.00;70.12;101557.50;5032476;28;20033;-76
2021/06/26 04:24:24;;;;;;;20.48;13.50;;;;;;;15.99;70.54;101556.59;5033164;28;20080;-76
2021/06/26 04:26:50;;;;;;;26.40;14.82;;;;;;;16.08;70.31;101553.50;5034344;28;20029;-75
2021/06/26 04:29:15;;;;;;;22.65;14.13;;;;;;;16.12;69.93;101546.69;5032742;28;20112;-75
2021/06/26 04:31:41;;;;;;;21.80;13.07;;;;;;;16.08;69.82;101550.91;5033530;28;20084;-75
2021/06/26 04:34:06;;;;;;;20.10;13.38;;;;;;;16.06;69.77;101553.41;5032848;28;20034;-75
2021/06/26 04:36:32;;;;;;;19.70;12.70;;;;;;;16.20;69.91;101558.28;5033475;28;20112;-75
2021/06/26 04:38:57;;;;;;;25.90;14.00;;;;;;;16.28;69.81;101563.81;5033646;28;20029;-75
2021/06/26 04:41:23;;;;;;;23.65;13.35;;;;;;;16.38;68.74;101567.66;5032093;28;20052;-75
2021/06/26 04:43:49;;;;;;;21.50;12.73;;;;;;;16.41;68.80;101570.38;5032616;28;20053;-75
2021/06/26 04:46:14;;;;;;;21.85;13.20;;;;;;;16.49;69.65;101576.81;5032400;28;20049;-75
2021/06/26 04:48:41;;;;;;;20.42;12.90;;;;;;;16.57;68.99;101578.00;5033598;28;20037;-75
2021/06/26 04:51:07;;;;;;;19.55;13.10;;;;;;;16.57;68.71;101578.00;5031982;28;20023;-75
2021/06/26 04:53:33;;;;;;;21.27;11.93;;;;;;;16.63;69.21;101582.53;5016060;28;20032;-75
2021/06/26 04:55:58;;;;;;;20.63;13.02;;;;;;;16.63;69.06;101573.03;5032573;28;20403;-74
2021/06/26 04:58:24;;;;;;;22.35;12.60;;;;;;;16.43;69.35;101579.13;5032422;28;20021;-74
2021/06/26 05:00:51;;;;;;;22.98;12.88;;;;;;;16.42;70.17;101582.56;5031879;28;20485;-74
2021/06/26 05:03:21;;;;;;;21.10;13.32;;;;;;;16.54;69.57;101588.28;5032199;28;20107;-74
2021/06/26 05:05:50;;;;;;;23.35;12.23;;;;;;;16.60;69.39;101583.31;5033418;28;20045;-75
2021/06/26 05:08:16;;;;;;;23.40;13.73;;;;;;;16.62;69.14;101581.66;5031769;28;20036;-75
2021/06/26 05:10:42;;;;;;;23.95;13.50;;;;;;;16.64;69.18;101580.00;5031950;28;20057;-75
2021/06/26 05:13:07;;;;;;;22.02;13.15;;;;;;;16.61;69.43;101579.88;5031624;28;20076;-75
2021/06/26 05:15:34;;;;;;;24.35;14.02;;;;;;;16.73;68.83;101579.47;5032174;28;20056;-75
2021/06/26 05:17:59;;;;;;;22.63;13.95;;;;;;;16.93;67.92;101576.72;5015358;28;20068;-75
2021/06/26 05:20:26;;;;;;;19.45;12.63;;;;;;;17.17;67.24;101587.22;5014379;28;20046;-74
2021/06/26 05:22:51;;;;;;;19.33;12.38;;;;;;;17.36;66.37;101587.88;5032966;28;20025;-75
2021/06/26 05:25:17;;;;;;;21.55;12.80;;;;;;;17.49;65.41;101590.09;5031993;28;20478;-75
2021/06/26 05:27:42;;;;;;;19.30;12.45;;;;;;;17.51;65.14;101598.88;5032287;28;20025;-75
2021/06/26 05:30:09;;;;;;;18.48;11.82;;;;;;;17.57;64.63;101598.22;5034422;28;20047;-75
2021/06/26 05:32:34;;;;;;;20.90;12.80;;;;;;;17.62;64.90;101590.56;5050802;28;20029;-75
2021/06/26 05:35:00;;;;;;;23.85;12.20;;;;;;;17.55;64.47;101604.22;5033540;28;20027;-75
2021/06/26 05:37:26;;;;;;;17.05;11.52;;;;;;;17.55;64.53;101601.59;5047354;28;20118;-75
2021/06/26 05:39:52;;;;;;;18.05;11.52;;;;;;;17.60;64.81;101597.44;5042781;28;20053;-75
2021/06/26 05:42:18;;;;;;;21.02;11.38;;;;;;;17.63;65.39;101597.56;5040750;28;20029;-75
2021/06/26 05:44:43;;;;;;;20.00;12.25;;;;;;;17.60;65.75;101598.31;5040558;28;20096;-75
2021/06/26 05:47:08;;;;;;;19.90;12.05;;;;;;;17.44;65.40;101607.28;5041295;28;20048;-75
2021/06/26 05:49:34;;;;;;;18.30;11.38;;;;;;;17.55;65.08;101610.28;5038962;28;20063;-75
2021/06/26 05:52:00;;;;;;;18.95;12.85;;;;;;;17.46;65.32;101607.34;5035133;28;20036;-74
2021/06/26 05:54:25;;;;;;;21.20;13.05;;;;;;;17.57;65.22;101608.63;5031365;28;20034;-74
2021/06/26 05:56:51;;;;;;;18.55;12.40;;;;;;;17.68;64.37;101606.41;5031880;28;20021;-74
2021/06/26 05:59:16;;;;;;;24.13;11.23;;;;;;;17.84;64.00;101607.81;5039659;28;20026;-74
2021/06/26 06:01:42;;;;;;;19.50;11.68;;;;;;;18.08;63.03;101597.38;5042020;28;20024;-75
2021/06/26 06:04:08;;;;;;;19.70;11.52;;;;;;;18.23;62.53;101603.94;5023430;28;20445;-75
2021/06/26 06:06:34;;;;;;;17.08;11.27;;;;;;;18.31;62.75;101602.47;5037533;28;20025;-75
2021/06/26 06:08:59;;;;;;;17.80;11.25;;;;;;;18.29;62.37;101606.75;5041572;28;20025;-75
2021/06/26 06:11:25;;;;;;;15.57;10.82;;;;;;;18.34;62.88;101599.09;5041208;28;20074;-75
2021/06/26 06:13:50;;;;;;;14.57;10.27;;;;;;;18.44;62.11;101600.25;5033972;28;20041;-75
2021/06/26 06:16:17;;;;;;;14.63;10.48;;;;;;;18.40;61.64;101600.16;5031159;28;20034;-75
2021/06/26 06:18:43;;;;;;;15.98;9.85;;;;;;;18.71;61.01;101599.38;5032244;28;20495;-75
2021/06/26 06:21:09;;;;;;;17.60;10.63;;;;;;;18.82;61.43;101597.97;5030471;28;20055;-75
2021/06/26 06:23:35;;;;;;;11.95;9.27;;;;;;;18.89;61.53;101615.59;5032540;28;20022;-76
2021/06/26 06:26:00;;;;;;;15.88;10.00;;;;;;;18.95;60.97;101610.56;5032118;28;20038;-77
2021/06/26 06:28:26;;;;;;;15.80;9.70;;;;;;;19.16;60.31;101614.69;5031025;28;20399;-76
2021/06/26 06:30:51;;;;;;;14.93;9.02;;;;;;;19.35;59.46;101615.19;5014446;28;20021;-76
2021/06/26 06:33:17;;;;;;;15.57;9.57;;;;;;;19.09;59.80;101611.03;5032264;28;20042;-76
2021/06/26 06:35:42;;;;;;;16.73;9.25;;;;;;;19.23;58.88;101611.41;5031844;28;20050;-76
2021/06/26 06:38:08;;;;;;;11.30;9.00;;;;;;;19.14;57.93;101611.13;5030727;28;20483;-75
2021/06/26 06:40:33;;;;;;;15.68;8.98;;;;;;;19.36;57.98;101622.19;5033304;28;20071;-75
2021/06/26 06:42:58;;;;;;;13.05;8.77;;;;;;;19.34;57.50;101613.44;5036120;28;20025;-76
2021/06/26 06:45:24;;;;;;;15.70;9.68;;;;;;;19.55;57.24;101606.19;5034765;28;20120;-75
2021/06/26 06:47:49;;;;;;;13.55;8.95;;;;;;;19.77;56.00;101609.41;5035729;28;20030;-75
2021/06/26 06:50:15;;;;;;;10.82;8.27;;;;;;;20.17;55.77;101604.38;5035443;28;20025;-75
2021/06/26 06:52:41;;;;;;;11.63;7.97;;;;;;;20.30;56.09;101605.53;5034452;28;20048;-75
2021/06/26 06:55:08;;;;;;;12.05;8.18;;;;;;;20.59;55.73;101613.19;5034456;28;20020;-76
2021/06/26 06:57:33;;;;;;;10.70;7.05;;;;;;;20.88;54.16;101615.63;5034143;28;20044;-77
2021/06/26 06:59:59;;;;;;;10.95;7.60;;;;;;;21.09;53.59;101614.31;5017774;28;20056;-76
2021/06/26 07:02:24;;;;;;;13.88;7.18;;;;;;;21.38;52.05;101616.66;5033613;28;20033;-75
2021/06/26 07:04:51;;;;;;;11.05;7.45;;;;;;;20.96;51.31;101621.91;5015107;28;20037;-74
2021/06/26 07:07:16;;;;;;;13.50;7.57;;;;;;;20.99;52.29;101619.38;5033797;28;20025;-76
2021/06/26 07:09:42;;;;;;;10.38;6.80;;;;;;;20.94;52.12;101621.00;5035197;28;20039;-75
2021/06/26 07:12:08;;;;;;;10.00;6.78;;;;;;;21.08;50.98;101617.81;5036213;28;20053;-75
2021/06/26 07:14:34;;;;;;;10.05;6.40;;;;;;;21.11;52.04;101623.09;5042191;28;20053;-74
2021/06/26 07:17:00;;;;;;;9.15;6.57;;;;;;;21.23;52.16;101619.88;5044940;28;20116;-75
2021/06/26 07:19:26;;;;;;;12.77;5.53;;;;;;;21.51;52.31;101634.38;5042243;28;20393;-75
2021/06/26 07:21:51;;;;;;;10.20;6.10;;;;;;;21.71;50.53;101626.06;5058682;28;20024;-75
2021/06/26 07:24:17;;;;;;;7.53;5.43;;;;;;;21.93;48.61;101629.09;5042270;28;20036;-75
2021/06/26 07:26:43;;;;;;;10.18;6.20;;;;;;;22.00;47.09;101628.34;5039140;28;20363;-74
2021/06/26 07:29:09;;;;;;;7.72;5.13;;;;;;;22.37;48.41;101623.69;5044512;28;20032;-75
2021/06/26 07:31:35;;;;;;;9.27;6.05;;;;;;;21.92;46.51;101619.47;5026253;28;20028;-76
2021/06/26 07:34:00;;;;;;;10.27;5.97;;;;;;;22.21;47.61;101621.69;5043985;28;20100;-76
2021/06/26 07:36:26;;;;;;;8.32;5.78;;;;;;;22.64;46.50;101627.63;5042026;28;20029;-78
2021/06/26 07:38:52;;;;;;;8.88;6.53;;;;;;;22.49;46.04;101628.31;5043562;28;20033;-77
2021/06/26 07:41:18;;;;;;;14.68;7.70;;;;;;;22.64;47.25;101622.38;5042626;28;20036;-76
2021/06/26 07:43:43;;;;;;;10.85;6.38;;;;;;;22.90;46.84;101625.38;5044382;28;20029;-75
2021/06/26 07:46:09;;;;;;;8.65;6.15;;;;;;;23.09;47.78;101635.28;5043413;28;20073;-75
2021/06/26 07:48:35;;;;;;;13.20;6.90;;;;;;;23.31;45.81;101624.19;5042577;28;20036;-75
2021/06/26 07:51:01;;;;;;;10.98;5.93;;;;;;;23.47;45.36;101629.63;5042372;28;20056;-76
2021/06/26 07:53:27;;;;;;;16.70;7.63;;;;;;;23.48;44.11;101618.25;5042232;28;20033;-76
2021/06/26 07:55:53;;;;;;;11.15;6.30;;;;;;;23.87;44.42;101621.28;5044220;28;20028;-76
2021/06/26 07:58:23;;;;;;;12.25;7.15;;;;;;;24.04;44.21;101624.97;5045292;28;20036;-75
2021/06/26 08:00:49;;;;;;;10.82;7.70;;;;;;;24.45;43.53;101620.91;5041248;28;20509;-76
2021/06/26 08:03:16;;;;;;;11.68;8.85;;;;;;;24.39;42.29;101620.88;5033542;28;20490;-77
2021/06/26 08:05:43;;;;;;;12.18;8.38;;;;;;;24.81;42.45;101629.06;5043153;28;20025;-77
2021/06/26 08:08:08;;;;;;;13.80;8.73;;;;;;;24.95;40.07;101616.00;5035183;28;20033;-75
2021/06/26 08:10:34;;;;;;;12.55;8.70;;;;;;;25.63;41.18;101610.97;5036149;28;20395;-76
2021/06/26 08:13:00;;;;;;;15.23;10.15;;;;;;;25.45;37.98;101605.63;5036242;28;20033;-77
2021/06/26 08:15:26;;;;;;;15.88;9.60;;;;;;;25.59;39.80;101608.31;5037811;28;20029;-71
2021/06/26 08:17:51;;;;;;;15.23;9.65;;;;;;;25.45;39.15;101596.00;5042789;28;20367;-72
2021/06/26 08:20:17;;;;;;;17.65;9.25;;;;;;;25.15;39.89;101604.66;5043680;28;20029;-73
2021/06/26 08:22:42;;;;;;;16.67;10.82;;;;;;;24.98;40.25;101607.19;5041010;28;20017;-73
2021/06/26 08:25:09;;;;;;;14.10;9.18;;;;;;;25.48;40.46;101600.38;5032540;28;20051;-73
2021/06/26 08:27:34;;;;;;;13.57;8.60;;;;;;;25.81;39.64;101598.66;5041094;28;20487;-72
2021/06/26 08:29:59;;;;;;;14.95;8.27;;;;;;;25.75;39.75;101603.94;5041830;28;20037;-73
2021/06/26 08:32:25;;;;;;;12.00;8.63;;;;;;;26.14;39.38;101604.84;5042996;28;20017;-73
2021/06/26 08:34:50;;;;;;;12.27;8.35;;;;;;;26.13;39.27;101605.72;5040778;28;20467;-74
2021/06/26 08:37:17;;;;;;;14.40;8.35;;;;;;;27.05;37.65;101603.84;5043094;28;20025;-74
2021/06/26 08:39:42;;;;;;;11.90;7.75;;;;;;;27.07;36.98;101607.34;5043775;28;20036;-76
2021/06/26 08:42:08;;;;;;;10.98;7.00;;;;;;;26.59;37.75;101610.13;5041530;28;20025;-75
2021/06/26 08:44:34;;;;;;;13.85;9.07;;;;;;;25.58;38.45;101596.88;5025356;28;20036;-80
2021/06/26 08:47:00;;;;;;;10.73;6.85;;;;;;;26.37;38.33;101604.84;5043069;28;20025;-78
2021/06/26 08:49:25;;;;;;;14.10;7.30;;;;;;;26.54;37.77;101611.88;5024972;28;20024;-76
2021/06/26 08:51:52;;;;;;;13.65;8.38;;;;;;;26.10;37.35;101600.47;5039313;28;20475;-76
2021/06/26 08:54:18;;;;;;;12.32;8.13;;;;;;;25.79;39.11;101605.69;5024497;28;20124;-74
2021/06/26 08:56:46;;;;;;;11.07;8.07;;;;;;;25.83;40.22;101602.19;5039999;28;20125;-76
2021/06/26 08:59:11;;;;;;;12.07;7.85;;;;;;;25.48;39.02;101600.38;5042843;28;20012;-75
2021/06/26 09:01:38;;;;;;;11.98;7.22;;;;;;;25.54;39.38;101605.66;5039871;28;20025;-76
2021/06/26 09:04:05;;;;;;;11.27;7.53;;;;;;;24.87;41.29;101607.13;5039565;28;20024;-75
2021/06/26 09:06:34;;;;;;;14.68;8.90;;;;;;;25.15;41.15;101602.00;5031079;28;20025;-76
2021/06/26 09:09:01;;;;;;;14.48;7.80;;;;;;;25.35;40.79;101610.88;5042448;28;20025;-76
2021/06/26 09:11:27;;;;;;;11.38;7.95;;;;;;;25.56;40.72;101603.91;5038215;28;20025;-75
2021/06/26 09:13:52;;;;;;;12.77;8.35;;;;;;;25.92;39.38;101601.31;5041441;28;20128;-75
2021/06/26 09:16:20;;;;;;;12.57;8.40;;;;;;;26.00;38.53;101598.69;5043698;28;20056;-76
2021/06/26 09:18:47;;;;;;;12.02;8.70;;;;;;;26.79;37.16;101604.75;5037966;28;20017;-74
2021/06/26 09:21:24;;;;;;;12.40;8.02;;;;;;;27.35;36.55;101612.50;5041241;28;20060;-75
2021/06/26 09:24:00;;;;;;;15.25;10.07;;;;;;;27.38;34.90;101615.13;5040954;28;20029;-76
2021/06/26 09:26:27;;;;;;;13.30;8.55;;;;;;;27.56;34.83;101602.69;5037324;28;20366;-75
2021/06/26 09:28:52;;;;;;;14.32;7.88;;;;;;;28.37;34.61;101596.78;5015559;28;20025;-72
2021/06/26 09:31:20;;;;;;;14.73;8.73;;;;;;;28.82;32.98;101607.78;5032729;28;20040;-73
2021/06/26 09:34:00;;;;;;;13.23;8.38;;;;;;;29.06;32.48;101605.72;5017975;28;20037;-76
2021/06/26 09:36:29;;;;;;;14.77;9.45;;;;;;;27.91;33.19;101598.91;5031701;28;20033;-75
2021/06/26 09:39:00;;;;;;;12.43;8.70;;;;;;;29.89;31.09;101597.47;5031915;28;20021;-79
2021/06/26 09:41:27;;;;;;;16.45;8.20;;;;;;;29.42;33.57;101600.88;5031348;28;20585;-74
2021/06/26 09:43:53;;;;;;;11.50;8.77;;;;;;;29.61;31.61;101608.53;5031948;28;20056;-76
2021/06/26 09:46:19;;;;;;;11.70;8.02;;;;;;;29.62;31.45;101605.00;5048179;28;20467;-77
2021/06/26 09:48:55;;;;;;;12.05;8.75;;;;;;;29.34;31.81;101600.06;5033135;28;20519;-76
2021/06/26 09:51:29;;;;;;;14.55;9.02;;;;;;;28.27;32.31;101604.81;5037776;28;20025;-76
2021/06/26 09:53:59;;;;;;;14.90;9.13;;;;;;;28.39;33.23;101605.59;5039259;28;20025;-74
2021/06/26 09:56:40;;;;;;;15.45;10.02;;;;;;;27.09;35.43;101600.28;5039992;28;20026;-76
2021/06/26 09:59:06;;;;;;;16.45;9.80;;;;;;;27.35;35.67;101607.19;5040823;28;20025;-80
2021/06/26 10:01:34;;;;;;;14.70;9.57;;;;;;;27.24;36.19;101603.75;5042163;28;20106;-76
2021/06/26 10:04:01;;;;;;;14.73;9.50;;;;;;;26.83;36.75;101603.88;5040060;28;20014;-76
2021/06/26 10:06:27;;;;;;;14.52;9.43;;;;;;;26.23;37.88;101602.25;5041260;28;20020;-77
2021/06/26 10:08:53;;;;;;;16.10;11.45;;;;;;;25.93;38.64;101593.38;5041956;28;20466;-75
2021/06/26 10:11:19;;;;;;;17.63;10.00;;;;;;;26.20;39.32;101602.25;5034347;28;20036;-77
2021/06/26 10:13:45;;;;;;;18.90;11.43;;;;;;;27.20;36.92;101607.28;5034683;28;20407;-76
2021/06/26 10:16:11;;;;;;;16.27;10.40;;;;;;;27.96;35.63;101593.59;5038593;28;20022;-78
2021/06/26 10:18:39;;;;;;;18.50;11.38;;;;;;;26.53;36.63;101595.13;5044836;28;20029;-82
2021/06/26 10:21:05;;;;;;;15.13;10.60;;;;;;;26.60;38.15;101600.41;5046116;28;20039;-81
2021/06/26 10:23:35;;;;;;;16.80;11.02;;;;;;;26.78;38.42;101605.63;5044242;28;20467;-79
2021/06/26 10:26:01;;;;;;;15.77;10.07;;;;;;;27.09;37.60;101600.28;5023177;28;20025;-79
2021/06/26 10:28:28;;;;;;;15.73;10.27;;;;;;;26.96;37.83;101603.84;5044964;28;20013;-77
2021/06/26 10:31:10;;;;;;;15.68;10.25;;;;;;;26.65;37.89;101599.53;5045835;28;20056;-79
2021/06/26 10:33:36;;;;;;;16.05;10.35;;;;;;;26.36;38.55;101599.59;5045240;28;20028;-79
2021/06/26 10:36:01;;;;;;;15.73;9.25;;;;;;;26.03;39.66;101598.69;5040396;28;20034;-78
2021/06/26 10:38:42;;;;;;;15.27;9.07;;;;;;;26.01;39.38;101600.47;5037140;28;20025;-75
2021/06/26 10:41:18;;;;;;;13.80;9.75;;;;;;;25.78;40.56;101593.38;5033391;28;20021;-76
2021/06/26 10:44:00;;;;;;;12.93;9.50;;;;;;;25.88;40.82;101595.16;5035473;28;20546;-77
2021/06/26 10:47:11;;;;;;;12.85;9.52;;;;;;;25.22;40.65;101598.53;5006308;28;20948;-74
2021/06/26 10:49:36;;;;;;;13.07;9.48;;;;;;;25.22;40.58;101593.25;5036387;28;20546;-75
2021/06/26 10:52:10;;;;;;;14.57;9.90;;;;;;;25.43;41.14;101596.81;5032303;28;20108;-75
2021/06/26 10:54:36;;;;;;;13.15;8.90;;;;;;;25.90;40.70;101593.38;5034445;28;20032;-72
2021/06/26 10:57:04;;;;;;;13.52;8.90;;;;;;;26.37;39.17;101598.69;5034133;28;20021;-72
2021/06/26 10:59:29;;;;;;;12.68;9.68;;;;;;;26.48;37.37;101591.63;5036690;28;20026;-77
2021/06/26 11:02:06;;;;;;;14.85;10.20;;;;;;;26.44;37.96;101589.88;5036860;28;20035;-76
2021/06/26 11:04:33;;;;;;;12.68;9.35;;;;;;;26.31;38.40;101588.16;5035985;28;20036;-75
2021/06/26 11:07:03;;;;;;;16.05;10.43;;;;;;;25.90;39.50;101581.97;5035989;28;20022;-78
2021/06/26 11:09:46;;;;;;;15.90;10.10;;;;;;;25.68;39.97;101584.59;5036860;28;20025;-72
2021/06/26 11:12:13;;;;;;;15.77;10.50;;;;;;;25.30;41.08;101591.50;5036728;28;20471;-74
2021/06/26 11:14:56;;;;;;;15.10;9.75;;;;;;;25.30;41.66;101596.78;5033390;28;20061;-73